Time;durP1;ratioP1;P1;durP2;ratioP2;P2;SDS_P1;SDS_P2;PMS_P1;PMS_P2;Temp;Humidity;BMP_temperature;BMP_pressure;BME280_temperature;BME280_humidity;BME280_pressure;Samples;Min_cycle;Max_cycle;Signal;HPM_P1;HPM_P2
2022/01/23 00:00:10;;;;;;;47.13;20.65;;;;;;;;;;5063487;28;20013;-78
2022/01/23 00:02:35;;;;;;;45.15;19.55;;;;;;;;;;5066188;28;20020;-78
2022/01/23 00:05:06;;;;;;;57.58;24.33;;;;;;;;;;5059981;28;20026;-78
2022/01/23 00:07:32;;;;;;;43.75;19.60;;;;;;;;;;5067737;28;20407;-79
2022/01/23 00:09:58;;;;;;;40.80;20.20;;;;;;;;;;5059437;28;20452;-78
2022/01/23 00:12:26;;;;;;;42.35;22.13;;;;;;;;;;5053161;28;20165;-78
2022/01/23 00:17:35;;;;;;;65.60;28.83;;;;;;;;;;5055202;28;20034;-77
2022/01/23 00:20:04;;;;;;;63.75;31.92;;;;;;;;;;5056087;28;20020;-78
2022/01/23 00:30:31;;;;;;;51.05;23.98;;;;;;;;;;5054820;28;20438;-79
2022/01/23 00:32:58;;;;;;;55.88;26.23;;;;;;;;;;5053001;28;20033;-78
2022/01/23 00:35:24;;;;;;;52.92;26.15;;;;;;;;;;5055306;28;20545;-78
2022/01/23 00:37:50;;;;;;;53.08;26.23;;;;;;;;;;5053810;28;20052;-78
2022/01/23 00:40:15;;;;;;;51.10;25.77;;;;;;;;;;5054551;28;20096;-77
2022/01/23 00:42:41;;;;;;;43.08;23.15;;;;;;;;;;5053286;28;20021;-77
2022/01/23 00:47:53;;;;;;;38.78;19.35;;;;;;;;;;5054393;28;20031;-77
2022/01/23 00:50:18;;;;;;;39.70;21.38;;;;;;;;;;5053821;28;20028;-77
2022/01/23 00:52:44;;;;;;;47.72;25.25;;;;;;;;;;5054369;28;20061;-77
2022/01/23 00:55:09;;;;;;;30.95;17.83;;;;;;;;;;5053901;28;20035;-79
2022/01/23 00:57:35;;;;;;;25.13;14.05;;;;;;;;;;5054779;28;20028;-77
2022/01/23 01:00:00;;;;;;;33.25;19.48;;;;;;;;;;5057033;28;20027;-77
2022/01/23 01:02:26;;;;;;;40.40;23.38;;;;;;;;;;5057864;28;20025;-78
2022/01/23 01:04:52;;;;;;;35.80;19.55;;;;;;;;;;5058791;28;20043;-78
2022/01/23 01:07:17;;;;;;;32.58;19.02;;;;;;;;;;5068803;28;20455;-78
2022/01/23 01:09:48;;;;;;;46.03;25.33;;;;;;;;;;5078408;28;20024;-78
2022/01/23 01:12:19;;;;;;;34.17;17.58;;;;;;;;;;5078741;28;20028;-77
2022/01/23 01:17:39;;;;;;;40.00;20.77;;;;;;;;;;5078779;28;20069;-77
2022/01/23 01:31:21;;;;;;;31.35;14.88;;;;;;;;;;5077990;28;20043;-78
2022/01/23 01:33:52;;;;;;;26.67;14.20;;;;;;;;;;5076781;28;20803;-77
2022/01/23 01:38:43;;;;;;;31.15;16.17;;;;;;;;;;5077844;28;20553;-76
2022/01/23 01:41:08;;;;;;;30.30;14.90;;;;;;;;;;5077918;28;20110;-79
2022/01/23 01:43:34;;;;;;;36.50;17.83;;;;;;;;;;5078074;28;20020;-77
2022/01/23 01:45:59;;;;;;;27.38;16.17;;;;;;;;;;5077585;28;20024;-77
2022/01/23 01:48:25;;;;;;;20.42;11.75;;;;;;;;;;5076266;28;20051;-79
2022/01/23 01:50:54;;;;;;;24.80;12.50;;;;;;;;;;5077320;28;20475;-78
2022/01/23 01:53:19;;;;;;;19.50;10.63;;;;;;;;;;5077497;28;20056;-78
2022/01/23 01:55:49;;;;;;;20.77;11.77;;;;;;;;;;5077341;28;20486;-75
2022/01/23 02:01:10;;;;;;;29.50;15.63;;;;;;;;;;5078009;28;20142;-78
2022/01/23 02:08:46;;;;;;;26.15;13.57;;;;;;;;;;5077397;28;20035;-76
2022/01/23 02:11:18;;;;;;;54.88;24.92;;;;;;;;;;5077473;28;20103;-79
2022/01/23 02:13:49;;;;;;;69.10;27.90;;;;;;;;;;5075792;28;20032;-76
2022/01/23 02:24:48;;;;;;;28.27;14.77;;;;;;;;;;5077506;28;20027;-77
2022/01/23 02:54:54;;;;;;;49.65;24.25;;;;;;;;;;5063848;28;20431;-77
2022/01/23 02:57:53;;;;;;;51.05;21.80;;;;;;;;;;5077671;28;20099;-78
2022/01/23 03:00:12;;;;;;;37.15;20.08;;;;;;;;;;5075916;28;21144;-77
2022/01/23 03:02:43;;;;;;;29.95;15.45;;;;;;;;;;5077242;28;20067;-77
2022/01/23 03:05:12;;;;;;;34.38;19.67;;;;;;;;;;5075060;28;20123;-77
2022/01/23 03:07:54;;;;;;;26.73;16.03;;;;;;;;;;5074625;28;20042;-77
2022/01/23 03:10:27;;;;;;;35.53;19.52;;;;;;;;;;5076762;28;20019;-78
2022/01/23 03:26:52;;;;;;;42.97;21.70;;;;;;;;;;5033329;28;20137;-78
2022/01/23 03:29:21;;;;;;;63.55;32.97;;;;;;;;;;5054772;28;20061;-76
2022/01/23 03:34:26;;;;;;;53.70;28.45;;;;;;;;;;5075663;28;20034;-77
2022/01/23 03:36:52;;;;;;;138.63;63.35;;;;;;;;;;5075354;28;20019;-78
2022/01/23 03:39:18;;;;;;;153.35;64.95;;;;;;;;;;5074234;28;20024;-77
2022/01/23 03:41:44;;;;;;;52.30;26.17;;;;;;;;;;5074024;28;20030;-77
2022/01/23 03:44:11;;;;;;;182.88;73.95;;;;;;;;;;5073987;28;20020;-77
2022/01/23 03:49:31;;;;;;;81.45;36.60;;;;;;;;;;5075379;28;20539;-77
2022/01/23 03:51:57;;;;;;;160.07;69.35;;;;;;;;;;5075485;28;20016;-77
2022/01/23 03:54:24;;;;;;;73.28;35.13;;;;;;;;;;5075297;28;20035;-78
2022/01/23 03:56:50;;;;;;;48.28;25.02;;;;;;;;;;5073497;28;20035;-78
2022/01/23 03:59:15;;;;;;;38.22;20.80;;;;;;;;;;5073655;28;20786;-77
2022/01/23 04:01:41;;;;;;;40.75;20.23;;;;;;;;;;5061090;28;20464;-78
2022/01/23 04:04:18;;;;;;;43.90;21.92;;;;;;;;;;5073196;28;20051;-78
2022/01/23 04:06:43;;;;;;;35.95;16.17;;;;;;;;;;5076150;28;20499;-78
2022/01/23 04:09:09;;;;;;;37.15;19.15;;;;;;;;;;5075609;28;20141;-77
2022/01/23 04:11:34;;;;;;;33.63;17.75;;;;;;;;;;5073424;28;20054;-78
2022/01/23 04:14:02;;;;;;;37.30;19.33;;;;;;;;;;5074055;28;20131;-78
2022/01/23 05:00:12;;;;;;;27.50;16.58;;;;;;;;;;5078431;28;20390;-78
2022/01/23 05:05:07;;;;;;;25.70;14.13;;;;;;;;;;5078453;28;20417;-78
2022/01/23 05:07:32;;;;;;;44.10;21.55;;;;;;;;;;5076826;28;20039;-77
2022/01/23 05:09:58;;;;;;;26.27;13.10;;;;;;;;;;5077121;28;20017;-78
2022/01/23 05:12:28;;;;;;;23.33;13.48;;;;;;;;;;5077185;28;20035;-78
2022/01/23 05:14:53;;;;;;;18.58;11.35;;;;;;;;;;5076437;28;20489;-78
2022/01/23 05:17:19;;;;;;;37.50;19.77;;;;;;;;;;5079660;28;20100;-78
2022/01/23 05:19:45;;;;;;;32.10;16.80;;;;;;;;;;5078414;28;20486;-78
2022/01/23 05:22:31;;;;;;;27.73;15.05;;;;;;;;;;5078424;28;20093;-78
2022/01/23 05:25:21;;;;;;;24.48;13.85;;;;;;;;;;5077602;28;20036;-78
2022/01/23 05:27:42;;;;;;;24.67;15.45;;;;;;;;;;5077800;28;20066;-78
2022/01/23 05:30:07;;;;;;;33.47;19.02;;;;;;;;;;5078405;28;20059;-78
2022/01/23 05:32:40;;;;;;;32.47;17.80;;;;;;;;;;5076861;28;20288;-78
2022/01/23 05:35:06;;;;;;;27.77;15.30;;;;;;;;;;5076430;28;20053;-78
2022/01/23 05:37:33;;;;;;;26.17;14.70;;;;;;;;;;5077887;28;20031;-78
2022/01/23 05:39:58;;;;;;;30.88;15.98;;;;;;;;;;5078418;28;20018;-78
2022/01/23 05:42:23;;;;;;;25.55;13.98;;;;;;;;;;5077843;28;20098;-78
2022/01/23 05:44:49;;;;;;;24.40;13.50;;;;;;;;;;5076840;28;20070;-78
2022/01/23 05:47:14;;;;;;;26.40;12.82;;;;;;;;;;5079430;28;20028;-78
2022/01/23 05:49:40;;;;;;;25.23;14.25;;;;;;;;;;5077607;28;20271;-78
2022/01/23 05:52:05;;;;;;;27.23;15.15;;;;;;;;;;5079074;28;20031;-78
2022/01/23 05:54:31;;;;;;;27.40;15.95;;;;;;;;;;5075844;28;20439;-78
2022/01/23 05:56:56;;;;;;;31.27;15.60;;;;;;;;;;5077683;28;20024;-79
2022/01/23 05:59:22;;;;;;;27.33;13.98;;;;;;;;;;5076146;28;20069;-77
2022/01/23 06:01:51;;;;;;;36.53;17.55;;;;;;;;;;5075846;28;20059;-78
2022/01/23 06:04:17;;;;;;;25.77;14.70;;;;;;;;;;5077459;28;20024;-78
2022/01/23 06:06:42;;;;;;;33.30;18.92;;;;;;;;;;5076211;28;20035;-78
2022/01/23 06:09:08;;;;;;;40.05;20.10;;;;;;;;;;5076122;28;20024;-77
2022/01/23 06:11:33;;;;;;;57.47;29.70;;;;;;;;;;5070111;28;20024;-79
2022/01/23 06:13:59;;;;;;;65.93;31.13;;;;;;;;;;5057546;28;20059;-78
2022/01/23 06:16:24;;;;;;;66.80;31.38;;;;;;;;;;5056426;28;20039;-78
2022/01/23 06:18:49;;;;;;;57.88;29.10;;;;;;;;;;5055978;28;20055;-78
2022/01/23 06:21:19;;;;;;;61.20;30.05;;;;;;;;;;5055466;28;20073;-77
2022/01/23 06:23:44;;;;;;;48.17;25.30;;;;;;;;;;5056976;28;20726;-77
2022/01/23 06:26:10;;;;;;;44.78;22.20;;;;;;;;;;5056865;28;20744;-77
2022/01/23 06:28:41;;;;;;;63.97;30.63;;;;;;;;;;5057757;28;20367;-79
2022/01/23 06:31:07;;;;;;;69.15;33.22;;;;;;;;;;5056899;28;20090;-78
2022/01/23 06:33:32;;;;;;;68.75;32.92;;;;;;;;;;5056520;28;20020;-78
2022/01/23 06:35:58;;;;;;;70.07;34.85;;;;;;;;;;5055383;28;20071;-79
2022/01/23 06:38:23;;;;;;;57.78;29.05;;;;;;;;;;5059066;28;20729;-76
2022/01/23 06:40:48;;;;;;;49.38;24.60;;;;;;;;;;5073080;28;20898;-79
2022/01/23 06:43:14;;;;;;;52.45;24.10;;;;;;;;;;5060814;28;20054;-78
2022/01/23 06:45:39;;;;;;;69.32;31.83;;;;;;;;;;5054769;28;20028;-78
2022/01/23 06:48:04;;;;;;;67.00;33.78;;;;;;;;;;5055326;28;20122;-77
2022/01/23 06:50:30;;;;;;;51.58;24.88;;;;;;;;;;5055044;28;20574;-79
2022/01/23 06:52:55;;;;;;;73.30;36.08;;;;;;;;;;5054846;28;20016;-79
2022/01/23 06:55:20;;;;;;;69.07;32.25;;;;;;;;;;5054490;28;20170;-79
2022/01/23 06:57:46;;;;;;;56.78;26.15;;;;;;;;;;5054501;28;20119;-78
2022/01/23 07:00:11;;;;;;;66.25;30.33;;;;;;;;;;5054946;28;20104;-81
2022/01/23 07:02:37;;;;;;;55.35;26.88;;;;;;;;;;5056512;28;20187;-78
2022/01/23 07:05:02;;;;;;;27.73;15.93;;;;;;;;;;5054393;28;20024;-79
2022/01/23 07:07:28;;;;;;;51.13;27.00;;;;;;;;;;5069649;28;20061;-77
2022/01/23 07:09:53;;;;;;;23.77;13.25;;;;;;;;;;5076600;28;20171;-78
2022/01/23 07:12:18;;;;;;;41.85;22.13;;;;;;;;;;5077511;28;20020;-80
2022/01/23 07:14:43;;;;;;;35.92;18.38;;;;;;;;;;5074562;28;20109;-80
2022/01/23 07:17:09;;;;;;;24.83;15.45;;;;;;;;;;5076555;28;20080;-79
2022/01/23 07:19:34;;;;;;;24.65;14.55;;;;;;;;;;5075883;28;20108;-79
2022/01/23 07:21:59;;;;;;;34.92;20.75;;;;;;;;;;5076972;28;20383;-80
2022/01/23 07:24:25;;;;;;;25.77;14.63;;;;;;;;;;5075207;28;20023;-79
2022/01/23 07:26:50;;;;;;;23.02;14.27;;;;;;;;;;5075973;28;20109;-79
2022/01/23 07:29:17;;;;;;;30.63;17.83;;;;;;;;;;5076592;28;20486;-80
2022/01/23 07:31:55;;;;;;;42.67;22.83;;;;;;;;;;5074345;28;20031;-82
2022/01/23 07:34:21;;;;;;;38.35;19.45;;;;;;;;;;5071134;28;20035;-78
2022/01/23 07:36:46;;;;;;;36.20;17.88;;;;;;;;;;5071473;28;20032;-80
2022/01/23 07:39:11;;;;;;;75.68;32.03;;;;;;;;;;5074410;28;20031;-80
2022/01/23 07:41:37;;;;;;;75.65;34.15;;;;;;;;;;5073455;28;20020;-77
2022/01/23 07:44:02;;;;;;;44.78;20.33;;;;;;;;;;5075037;28;20028;-79
2022/01/23 07:46:28;;;;;;;72.72;30.55;;;;;;;;;;5073916;28;20038;-80
2022/01/23 07:48:53;;;;;;;73.53;30.73;;;;;;;;;;5074347;28;20452;-78
2022/01/23 07:51:18;;;;;;;51.15;25.40;;;;;;;;;;5073808;28;20050;-79
2022/01/23 07:53:44;;;;;;;33.38;19.02;;;;;;;;;;5072069;28;20478;-79
2022/01/23 07:56:09;;;;;;;25.63;16.17;;;;;;;;;;5061365;28;20163;-79
2022/01/23 07:58:35;;;;;;;44.70;23.88;;;;;;;;;;5053875;28;20128;-80
2022/01/23 08:01:00;;;;;;;41.47;21.42;;;;;;;;;;5054948;28;20109;-79
2022/01/23 08:03:25;;;;;;;25.20;14.48;;;;;;;;;;5053841;28;20447;-79
2022/01/23 08:05:51;;;;;;;32.80;17.88;;;;;;;;;;5053568;28;20031;-81
2022/01/23 08:08:16;;;;;;;34.80;19.08;;;;;;;;;;5073558;28;20020;-79
2022/01/23 08:10:42;;;;;;;42.45;22.80;;;;;;;;;;5073964;28;20028;-81
2022/01/23 08:13:07;;;;;;;44.38;25.58;;;;;;;;;;5072525;28;20027;-78
2022/01/23 08:15:33;;;;;;;57.08;30.58;;;;;;;;;;5071461;28;20089;-77
2022/01/23 08:18:03;;;;;;;33.38;17.35;;;;;;;;;;5047556;28;20483;-81
2022/01/23 08:20:29;;;;;;;60.17;32.78;;;;;;;;;;5075267;28;20467;-81
2022/01/23 08:22:57;;;;;;;38.53;20.20;;;;;;;;;;5073906;28;20032;-79
2022/01/23 08:25:23;;;;;;;78.65;43.53;;;;;;;;;;5075199;28;20030;-79
2022/01/23 08:27:48;;;;;;;58.88;33.13;;;;;;;;;;5073521;28;20024;-79
2022/01/23 08:30:13;;;;;;;40.05;20.00;;;;;;;;;;5073610;28;20556;-76
2022/01/23 08:32:39;;;;;;;31.77;14.77;;;;;;;;;;5075357;28;20028;-78
2022/01/23 08:35:05;;;;;;;34.53;18.55;;;;;;;;;;5073754;28;20032;-79
2022/01/23 08:37:31;;;;;;;22.05;12.52;;;;;;;;;;5075221;28;20031;-78
2022/01/23 08:39:56;;;;;;;30.52;16.15;;;;;;;;;;5075273;28;20523;-78
2022/01/23 08:42:22;;;;;;;22.90;14.18;;;;;;;;;;5073778;28;20439;-78
2022/01/23 08:44:48;;;;;;;22.20;11.75;;;;;;;;;;5073465;28;20063;-79
2022/01/23 08:47:14;;;;;;;25.52;14.18;;;;;;;;;;5074997;28;20056;-78
2022/01/23 08:49:45;;;;;;;35.20;19.30;;;;;;;;;;5073488;28;20051;-79
2022/01/23 08:52:11;;;;;;;37.47;21.35;;;;;;;;;;5074678;28;20388;-79
2022/01/23 08:54:37;;;;;;;35.72;20.77;;;;;;;;;;5073260;28;20028;-78
2022/01/23 08:57:02;;;;;;;40.83;24.17;;;;;;;;;;5073299;28;20358;-78
2022/01/23 08:59:28;;;;;;;41.35;23.85;;;;;;;;;;5073561;28;20855;-79
2022/01/23 09:01:53;;;;;;;44.03;21.92;;;;;;;;;;5074687;28;20442;-79
2022/01/23 09:04:18;;;;;;;56.83;26.38;;;;;;;;;;5074731;28;20603;-78
2022/01/23 09:06:44;;;;;;;33.92;16.60;;;;;;;;;;5075472;28;20081;-78
2022/01/23 09:09:15;;;;;;;25.27;13.85;;;;;;;;;;5074758;28;20028;-79
2022/01/23 09:11:53;;;;;;;40.40;20.73;;;;;;;;;;5073882;28;20485;-80
2022/01/23 09:14:20;;;;;;;51.67;21.42;;;;;;;;;;5062542;28;20044;-79
2022/01/23 09:16:46;;;;;;;42.65;19.35;;;;;;;;;;5060199;28;20032;-76
2022/01/23 09:19:11;;;;;;;46.13;20.75;;;;;;;;;;5054799;28;20047;-78
2022/01/23 09:21:38;;;;;;;31.42;14.60;;;;;;;;;;5057782;28;20435;-79
2022/01/23 09:24:04;;;;;;;53.50;22.13;;;;;;;;;;5060654;28;20840;-79
2022/01/23 09:26:30;;;;;;;44.92;20.30;;;;;;;;;;5065893;28;20424;-79
2022/01/23 09:28:58;;;;;;;47.20;20.05;;;;;;;;;;5068526;28;20445;-81
2022/01/23 09:31:45;;;;;;;53.72;24.00;;;;;;;;;;5064241;28;20421;-79
2022/01/23 09:34:09;;;;;;;43.95;18.95;;;;;;;;;;5057509;28;20383;-77
2022/01/23 09:36:34;;;;;;;55.08;24.65;;;;;;;;;;5056002;28;20036;-79
2022/01/23 09:39:00;;;;;;;38.40;19.15;;;;;;;;;;5056256;28;20039;-79
2022/01/23 09:41:27;;;;;;;46.35;25.20;;;;;;;;;;5063026;28;20147;-79
2022/01/23 09:43:54;;;;;;;32.40;15.85;;;;;;;;;;5065803;28;20028;-78
2022/01/23 09:46:22;;;;;;;75.45;32.92;;;;;;;;;;5062131;28;20020;-80
2022/01/23 09:48:49;;;;;;;39.63;19.02;;;;;;;;;;5067308;28;20024;-78
2022/01/23 09:51:31;;;;;;;48.80;21.52;;;;;;;;;;5065044;28;20091;-80
2022/01/23 09:54:23;;;;;;;29.67;15.75;;;;;;;;;;5068086;28;20028;-81
2022/01/23 09:56:52;;;;;;;29.83;15.07;;;;;;;;;;5057156;28;20043;-78
2022/01/23 09:59:18;;;;;;;39.97;17.13;;;;;;;;;;5060552;28;20028;-79
2022/01/23 10:01:45;;;;;;;38.30;19.80;;;;;;;;;;5066058;28;20035;-80
2022/01/23 10:04:11;;;;;;;20.80;11.35;;;;;;;;;;5074709;28;20066;-81
2022/01/23 10:06:36;;;;;;;31.65;15.90;;;;;;;;;;5069051;28;20042;-79
2022/01/23 10:09:06;;;;;;;22.80;12.82;;;;;;;;;;5077494;28;20027;-77
2022/01/23 10:11:35;;;;;;;25.55;13.15;;;;;;;;;;5078047;28;20031;-77
2022/01/23 10:14:01;;;;;;;31.90;15.75;;;;;;;;;;5076029;28;20082;-78
2022/01/23 10:16:26;;;;;;;30.38;14.68;;;;;;;;;;5075815;28;20464;-76
2022/01/23 10:18:53;;;;;;;24.92;14.40;;;;;;;;;;5076059;28;20050;-78
2022/01/23 10:21:18;;;;;;;28.05;15.15;;;;;;;;;;5076490;28;20077;-78
2022/01/23 10:23:44;;;;;;;27.38;13.63;;;;;;;;;;5072404;28;20892;-79
2022/01/23 10:26:09;;;;;;;38.65;19.60;;;;;;;;;;5068845;28;20039;-77
2022/01/23 10:28:36;;;;;;;50.42;25.17;;;;;;;;;;5069040;28;20527;-77
2022/01/23 10:31:03;;;;;;;27.88;15.48;;;;;;;;;;5069341;28;20276;-78
2022/01/23 10:33:32;;;;;;;32.65;17.30;;;;;;;;;;5070834;28;20035;-78
2022/01/23 10:35:59;;;;;;;24.35;13.57;;;;;;;;;;5065999;28;20028;-77
2022/01/23 10:38:26;;;;;;;46.95;23.27;;;;;;;;;;5067053;28;20016;-78
2022/01/23 10:47:54;;;;;;;25.63;13.60;;;;;;;;;;5056823;28;20050;-82
2022/01/23 10:49:50;;;;;;;31.48;13.48;;;;;;;;;;5051872;28;20024;-81
2022/01/23 10:52:24;;;;;;;21.02;13.68;;;;;;;;;;5058576;28;20027;-80
2022/01/23 10:54:50;;;;;;;21.30;12.02;;;;;;;;;;5064882;28;20060;-79
2022/01/23 10:57:15;;;;;;;15.43;8.95;;;;;;;;;;5065318;28;20439;-79
2022/01/23 10:59:42;;;;;;;18.42;10.63;;;;;;;;;;5064580;28;20017;-78
2022/01/23 11:02:08;;;;;;;22.30;13.25;;;;;;;;;;5064245;28;20123;-80
2022/01/23 11:04:35;;;;;;;21.65;11.82;;;;;;;;;;5063052;28;20020;-78
2022/01/23 11:07:02;;;;;;;28.98;13.90;;;;;;;;;;5069084;28;20020;-78
2022/01/23 11:09:29;;;;;;;20.55;11.55;;;;;;;;;;5063416;28;20032;-78
2022/01/23 11:12:01;;;;;;;97.20;37.38;;;;;;;;;;5061895;28;20126;-79
2022/01/23 11:17:25;;;;;;;46.70;17.73;;;;;;;;;;5063615;28;20087;-81
2022/01/23 11:19:54;;;;;;;30.52;13.50;;;;;;;;;;5061251;28;20035;-78
2022/01/23 11:22:39;;;;;;;33.55;13.98;;;;;;;;;;5064750;28;20020;-78
2022/01/23 11:25:07;;;;;;;22.05;11.18;;;;;;;;;;5059157;28;20035;-79
2022/01/23 11:27:38;;;;;;;23.63;10.00;;;;;;;;;;5070756;28;20023;-79
2022/01/23 11:30:11;;;;;;;34.13;14.23;;;;;;;;;;5076335;28;20020;-80
2022/01/23 11:32:39;;;;;;;26.63;12.30;;;;;;;;;;5074809;28;20455;-78
2022/01/23 11:35:16;;;;;;;26.23;14.50;;;;;;;;;;5075404;28;20081;-79
2022/01/23 11:37:48;;;;;;;16.77;8.15;;;;;;;;;;5062391;28;20036;-78
2022/01/23 11:40:36;;;;;;;22.05;11.75;;;;;;;;;;5053720;28;20059;-77
2022/01/23 11:53:54;;;;;;;18.67;9.82;;;;;;;;;;5058957;28;20028;-78
2022/01/23 11:56:47;;;;;;;36.45;16.13;;;;;;;;;;5054765;28;20024;-78
2022/01/23 11:59:23;;;;;;;27.50;14.77;;;;;;;;;;5061969;28;20036;-79
2022/01/23 12:02:10;;;;;;;37.35;16.00;;;;;;;;;;5058346;28;20024;-79
2022/01/23 12:04:35;;;;;;;19.80;11.10;;;;;;;;;;5071807;28;20117;-79
2022/01/23 12:07:04;;;;;;;27.83;14.15;;;;;;;;;;5071208;28;21017;-78
2022/01/23 12:09:29;;;;;;;23.40;13.48;;;;;;;;;;5055154;28;20021;-76
2022/01/23 12:12:23;;;;;;;23.10;11.50;;;;;;;;;;5072692;28;20031;-78
2022/01/23 12:17:38;;;;;;;28.45;15.77;;;;;;;;;;5065753;28;20035;-77
2022/01/23 12:20:03;;;;;;;;;;;;;;;;;;5081170;28;20054;-79
2022/01/23 12:22:29;;;;;;;26.08;13.60;;;;;;;;;;5072384;28;19911;-79
2022/01/23 12:24:57;;;;;;;24.52;12.60;;;;;;;;;;5064985;28;20081;-79
2022/01/23 12:27:27;;;;;;;19.08;10.25;;;;;;;;;;5065274;28;20103;-78
2022/01/23 12:30:09;;;;;;;29.63;14.93;;;;;;;;;;5054378;28;20730;-79
2022/01/23 12:32:34;;;;;;;28.35;15.88;;;;;;;;;;5055360;28;20048;-79
2022/01/23 12:35:01;;;;;;;12.88;8.25;;;;;;;;;;5054516;28;20059;-79
2022/01/23 12:37:46;;;;;;;32.03;16.13;;;;;;;;;;5054151;28;20643;-80
2022/01/23 12:40:32;;;;;;;20.23;11.15;;;;;;;;;;5054939;28;20128;-79
2022/01/23 12:43:06;;;;;;;74.28;37.72;;;;;;;;;;5074839;28;20050;-79
2022/01/23 12:45:52;;;;;;;39.17;20.45;;;;;;;;;;5073972;28;20032;-78
2022/01/23 12:48:27;;;;;;;18.17;11.02;;;;;;;;;;5074110;28;20032;-79
2022/01/23 12:50:56;;;;;;;25.55;14.07;;;;;;;;;;5065406;28;20459;-80
2022/01/23 12:53:22;;;;;;;;;;;;;;;;;;5064330;28;20022;-78
2022/01/23 12:56:06;;;;;;;37.23;18.00;;;;;;;;;;5067692;28;19912;-77
2022/01/23 12:58:33;;;;;;;27.13;14.35;;;;;;;;;;5083555;28;20055;-79
2022/01/23 13:00:59;;;;;;;42.58;22.73;;;;;;;;;;5070996;28;20024;-79
2022/01/23 13:03:26;;;;;;;28.42;15.85;;;;;;;;;;5053525;28;20020;-78
2022/01/23 13:05:51;;;;;;;30.65;17.70;;;;;;;;;;5074670;28;20032;-79
2022/01/23 13:08:24;;;;;;;26.27;16.88;;;;;;;;;;5068891;28;20024;-78
2022/01/23 13:11:08;;;;;;;31.42;16.08;;;;;;;;;;5066360;28;20028;-79
2022/01/23 13:13:47;;;;;;;23.30;14.85;;;;;;;;;;5062773;28;20090;-79
2022/01/23 13:19:13;;;;;;;32.03;17.20;;;;;;;;;;5068622;28;20032;-79
2022/01/23 13:30:20;;;;;;;34.97;16.30;;;;;;;;;;5057601;28;20056;-78
2022/01/23 13:32:48;;;;;;;24.17;12.50;;;;;;;;;;5071823;28;20536;-79
2022/01/23 13:35:16;;;;;;;54.67;24.77;;;;;;;;;;5076751;28;20031;-78
2022/01/23 13:37:43;;;;;;;29.20;13.13;;;;;;;;;;5075927;28;20054;-79
2022/01/23 13:40:12;;;;;;;23.70;14.18;;;;;;;;;;5076994;28;20020;-79
2022/01/23 13:42:53;;;;;;;35.17;18.90;;;;;;;;;;5078842;28;20024;-78
2022/01/23 13:59:07;;;;;;;33.20;16.10;;;;;;;;;;5077578;28;20081;-78
2022/01/23 14:01:47;;;;;;;21.67;12.65;;;;;;;;;;5075524;28;20508;-77
2022/01/23 14:04:12;;;;;;;;;;;;;;;;;;5067836;28;20024;-79
2022/01/23 14:06:38;;;;;;;26.10;12.87;;;;;;;;;;5066957;28;19918;-79
2022/01/23 14:09:07;;;;;;;33.78;17.45;;;;;;;;;;5072369;28;20139;-78
2022/01/23 14:11:33;;;;;;;36.78;18.52;;;;;;;;;;5061092;28;20020;-78
2022/01/23 14:14:16;;;;;;;29.48;16.73;;;;;;;;;;5057317;28;20194;-78
2022/01/23 14:16:43;;;;;;;61.58;27.70;;;;;;;;;;5065108;28;20120;-79
2022/01/23 14:19:15;;;;;;;50.28;24.90;;;;;;;;;;5076077;28;20385;-79
2022/01/23 14:21:42;;;;;;;46.67;24.65;;;;;;;;;;5077258;28;20581;-79
2022/01/23 14:24:08;;;;;;;36.70;20.05;;;;;;;;;;5075776;28;20024;-79
2022/01/23 14:26:34;;;;;;;29.98;15.93;;;;;;;;;;5076536;28;20097;-78
2022/01/23 14:29:03;;;;;;;34.50;19.77;;;;;;;;;;5077237;28;20020;-78
2022/01/23 14:31:36;;;;;;;31.98;18.85;;;;;;;;;;5075724;28;20027;-77
2022/01/23 14:34:05;;;;;;;29.50;17.08;;;;;;;;;;5077739;28;20032;-80
2022/01/23 14:36:31;;;;;;;31.83;18.05;;;;;;;;;;5070209;28;20114;-79
2022/01/23 14:39:08;;;;;;;80.35;35.20;;;;;;;;;;5074334;28;20028;-78
2022/01/23 14:41:36;;;;;;;31.13;15.70;;;;;;;;;;5075840;28;20490;-78
2022/01/23 14:44:13;;;;;;;29.25;15.95;;;;;;;;;;5075262;28;20028;-78
2022/01/23 14:46:38;;;;;;;32.03;16.70;;;;;;;;;;5077050;28;20039;-77
2022/01/23 14:49:10;;;;;;;50.58;24.52;;;;;;;;;;5076795;28;20020;-78
2022/01/23 14:51:36;;;;;;;263.80;84.55;;;;;;;;;;5076830;28;20526;-77
2022/01/23 14:54:02;;;;;;;87.18;41.08;;;;;;;;;;5072107;28;20054;-77
2022/01/23 14:56:29;;;;;;;63.55;36.50;;;;;;;;;;5065368;28;20132;-77
2022/01/23 14:58:54;;;;;;;44.80;25.63;;;;;;;;;;5063623;28;20029;-78
2022/01/23 15:01:20;;;;;;;31.95;17.98;;;;;;;;;;5062999;28;20028;-80
2022/01/23 15:03:52;;;;;;;34.38;19.10;;;;;;;;;;5066378;28;20120;-80
2022/01/23 15:06:18;;;;;;;32.47;18.75;;;;;;;;;;5075483;28;20072;-79
2022/01/23 15:08:46;;;;;;;36.72;18.50;;;;;;;;;;5066899;28;20111;-79
2022/01/23 15:11:11;;;;;;;34.35;19.70;;;;;;;;;;5054760;28;20037;-79
2022/01/23 15:13:37;;;;;;;26.75;14.48;;;;;;;;;;5064925;28;20028;-78
2022/01/23 15:16:03;;;;;;;48.97;24.02;;;;;;;;;;5054444;28;20029;-79
2022/01/23 15:18:28;;;;;;;127.82;48.40;;;;;;;;;;5052165;28;20025;-79
2022/01/23 15:20:54;;;;;;;64.53;27.88;;;;;;;;;;5074196;28;20024;-79
2022/01/23 15:23:19;;;;;;;50.25;26.08;;;;;;;;;;5074397;28;20027;-79
2022/01/23 15:25:45;;;;;;;47.30;25.80;;;;;;;;;;5074333;28;20024;-79
2022/01/23 15:28:11;;;;;;;44.88;25.17;;;;;;;;;;5075320;28;20578;-77
2022/01/23 15:30:36;;;;;;;47.53;26.92;;;;;;;;;;5073723;28;20107;-78
2022/01/23 15:33:03;;;;;;;44.45;24.88;;;;;;;;;;5075444;28;20024;-79
2022/01/23 15:35:29;;;;;;;48.05;28.35;;;;;;;;;;5075853;28;20046;-80
2022/01/23 15:37:55;;;;;;;40.95;23.02;;;;;;;;;;5074819;28;20677;-78
2022/01/23 15:40:22;;;;;;;39.30;23.10;;;;;;;;;;5074035;28;20929;-78
2022/01/23 15:42:49;;;;;;;54.08;27.67;;;;;;;;;;5074068;28;20534;-79
2022/01/23 15:45:15;;;;;;;39.15;21.05;;;;;;;;;;5076426;28;20463;-81
2022/01/23 15:47:40;;;;;;;45.47;21.45;;;;;;;;;;5075634;28;20022;-80
2022/01/23 15:50:07;;;;;;;32.55;18.83;;;;;;;;;;5076055;28;20030;-80
2022/01/23 15:52:33;;;;;;;48.22;32.03;;;;;;;;;;5076129;28;20097;-77
2022/01/23 15:54:58;;;;;;;66.43;31.20;;;;;;;;;;5073812;28;20059;-80
2022/01/23 15:57:23;;;;;;;43.45;25.05;;;;;;;;;;5063100;28;20382;-80
2022/01/23 15:59:50;;;;;;;52.25;27.42;;;;;;;;;;5053986;28;20024;-81
2022/01/23 16:02:15;;;;;;;48.95;27.45;;;;;;;;;;5054382;28;20024;-79
2022/01/23 16:04:40;;;;;;;47.47;24.65;;;;;;;;;;5054490;28;20021;-79
2022/01/23 16:07:07;;;;;;;53.10;28.63;;;;;;;;;;5055129;28;20082;-79
2022/01/23 16:09:34;;;;;;;32.35;18.30;;;;;;;;;;5053368;28;20021;-78
2022/01/23 16:11:59;;;;;;;44.10;23.25;;;;;;;;;;5053438;28;20459;-80
2022/01/23 16:14:25;;;;;;;58.78;31.30;;;;;;;;;;5053677;28;20055;-80
2022/01/23 16:16:50;;;;;;;46.50;25.23;;;;;;;;;;5055965;28;20451;-79
2022/01/23 16:19:15;;;;;;;60.45;27.85;;;;;;;;;;5054594;28;20043;-80
2022/01/23 16:21:42;;;;;;;42.45;24.55;;;;;;;;;;5054835;28;20054;-79
2022/01/23 16:24:07;;;;;;;56.00;29.85;;;;;;;;;;5055555;28;20028;-81
2022/01/23 16:26:32;;;;;;;39.58;20.55;;;;;;;;;;5053659;28;20481;-79
2022/01/23 16:28:58;;;;;;;51.60;25.60;;;;;;;;;;5053008;28;20518;-80
2022/01/23 16:31:23;;;;;;;64.38;32.50;;;;;;;;;;5054645;28;20025;-79
2022/01/23 16:33:48;;;;;;;50.17;26.70;;;;;;;;;;5053754;28;20043;-79
2022/01/23 16:36:14;;;;;;;52.28;27.33;;;;;;;;;;5057736;28;20388;-80
2022/01/23 16:38:40;;;;;;;52.33;27.20;;;;;;;;;;5072678;28;20464;-80
2022/01/23 16:41:06;;;;;;;50.25;25.63;;;;;;;;;;5073617;28;20536;-79
2022/01/23 16:43:32;;;;;;;55.35;29.98;;;;;;;;;;5073290;28;20020;-79
2022/01/23 16:45:58;;;;;;;73.05;32.03;;;;;;;;;;5074552;28;20036;-78
2022/01/23 16:48:24;;;;;;;60.35;30.20;;;;;;;;;;5063860;28;20203;-78
2022/01/23 16:50:49;;;;;;;46.38;27.33;;;;;;;;;;5063836;28;20111;-79
2022/01/23 16:53:15;;;;;;;53.88;31.83;;;;;;;;;;5036803;28;20052;-80
2022/01/23 16:55:40;;;;;;;54.28;28.35;;;;;;;;;;5053254;28;20509;-78
2022/01/23 16:58:06;;;;;;;42.30;24.15;;;;;;;;;;5053413;28;20029;-79
2022/01/23 17:00:32;;;;;;;68.68;33.25;;;;;;;;;;5053159;28;20462;-77
2022/01/23 17:02:59;;;;;;;92.10;43.35;;;;;;;;;;5054685;28;21117;-76
2022/01/23 17:05:24;;;;;;;63.67;33.60;;;;;;;;;;5055005;28;20471;-79
2022/01/23 17:07:50;;;;;;;73.45;38.15;;;;;;;;;;5054486;28;20024;-80
2022/01/23 17:10:17;;;;;;;54.15;27.48;;;;;;;;;;5054614;28;20029;-79
2022/01/23 17:12:42;;;;;;;47.13;24.67;;;;;;;;;;5055863;28;20077;-79
2022/01/23 17:15:08;;;;;;;44.70;24.67;;;;;;;;;;5052623;28;20063;-78
2022/01/23 17:17:33;;;;;;;54.15;27.17;;;;;;;;;;5054979;28;20905;-79
2022/01/23 17:19:59;;;;;;;47.25;24.65;;;;;;;;;;5053242;28;20387;-78
2022/01/23 17:22:24;;;;;;;35.85;18.83;;;;;;;;;;5052632;28;20121;-78
2022/01/23 17:24:49;;;;;;;45.28;27.00;;;;;;;;;;5052796;28;20024;-78
2022/01/23 17:27:15;;;;;;;27.33;18.95;;;;;;;;;;5054553;28;20032;-77
2022/01/23 17:29:40;;;;;;;24.35;14.38;;;;;;;;;;5055100;28;20028;-75